Time;durP1;ratioP1;P1;durP2;ratioP2;P2;SDS_P1;SDS_P2;PMS_P1;PMS_P2;Temp;Humidity;BMP_temperature;BMP_pressure;BME280_temperature;BME280_humidity;BME280_pressure;Samples;Min_cycle;Max_cycle;Signal;HPM_P1;HPM_P2
2021/10/19 00:00:03;;;;;;;;;;;11.60;99.90;;;10.25;88.13;101656.66;2570045;30;138326;-38
2021/10/19 00:02:39;;;;;;;18.08;11.00;;;11.70;99.90;;;10.24;87.93;101640.47;2568197;30;136740;-39
2021/10/19 00:05:10;;;;;;;20.40;11.25;;;11.70;99.90;;;10.20;88.04;101629.94;2569782;30;138346;-39
2021/10/19 00:07:38;;;;;;;17.95;10.93;;;11.60;99.90;;;10.20;87.90;101631.81;2568767;30;136885;-39
2021/10/19 00:10:09;;;;;;;20.15;10.73;;;11.70;99.90;;;10.19;88.36;101625.53;2568376;30;138378;-38
2021/10/19 00:12:39;;;;;;;20.60;11.13;;;11.60;99.90;;;10.18;87.88;101618.38;2569424;30;137375;-39
2021/10/19 00:15:09;;;;;;;19.38;11.45;;;11.60;99.90;;;10.20;87.81;101632.66;2567139;30;138430;-39
2021/10/19 00:17:39;;;;;;;19.13;11.15;;;11.60;99.90;;;10.20;88.20;101624.47;2569368;30;136978;-39
2021/10/19 00:20:08;;;;;;;20.90;11.13;;;11.60;99.90;;;10.19;88.30;101622.78;2569370;30;138740;-38
2021/10/19 00:22:37;;;;;;;21.58;11.60;;;11.60;99.90;;;10.17;88.93;101622.13;2566158;30;137518;-39
2021/10/19 00:25:06;;;;;;;18.80;11.40;;;11.60;99.90;;;10.18;89.36;101612.91;2569631;30;136729;-39
2021/10/19 00:27:37;;;;;;;18.00;11.20;;;11.60;99.90;;;10.16;88.31;101612.28;2569819;30;136904;-39
2021/10/19 00:30:09;;;;;;;20.25;11.80;;;11.60;99.90;;;10.16;88.92;101614.13;2568704;30;139003;-39
2021/10/19 00:32:39;;;;;;;18.15;11.00;;;11.60;99.90;;;10.21;88.89;101615.25;2568009;30;137533;-38
2021/10/19 00:35:08;;;;;;;18.60;11.48;;;11.60;99.90;;;10.21;88.80;101614.41;2569055;30;137396;-38
2021/10/19 00:37:36;;;;;;;18.20;10.82;;;11.70;99.90;;;10.21;89.08;101612.53;2570452;30;138599;-38
2021/10/19 00:40:06;;;;;;;19.38;10.85;;;11.70;99.90;;;10.32;88.91;101600.28;2568104;30;139131;-39
2021/10/19 00:42:35;;;;;;;18.15;11.55;;;11.70;99.90;;;10.28;88.94;101609.03;2569799;30;137691;-38
2021/10/19 00:45:05;;;;;;;17.95;10.90;;;11.70;99.90;;;10.34;89.17;101609.13;2567538;30;138343;-39
2021/10/19 00:47:35;;;;;;;19.73;11.85;;;11.80;99.90;;;10.30;88.40;101607.81;2566353;30;137835;-38
2021/10/19 00:50:03;;;;;;;17.92;11.30;;;11.80;99.90;;;10.33;88.52;101612.88;2566132;30;138195;-38
2021/10/19 00:52:31;;;;;;;18.00;10.85;;;11.80;99.90;;;10.30;89.33;101616.00;2570441;30;137536;-39
2021/10/19 00:55:03;;;;;;;19.10;10.13;;;11.70;99.90;;;10.25;89.18;101621.19;2567427;30;137739;-39
2021/10/19 00:57:32;;;;;;;21.10;11.45;;;11.70;99.90;;;10.42;88.09;101619.13;2569355;30;137532;-39
2021/10/19 01:00:00;;;;;;;19.70;10.95;;;11.80;99.90;;;10.38;88.72;101633.28;2568508;30;137364;-39
2021/10/19 01:02:27;;;;;;;21.77;11.52;;;11.80;99.90;;;10.42;87.96;101619.13;2568897;30;136786;-38
2021/10/19 01:04:55;;;;;;;17.10;10.75;;;11.80;99.90;;;10.39;88.12;101619.47;2568379;30;137510;-39
2021/10/19 01:07:23;;;;;;;18.02;11.27;;;11.80;99.90;;;10.40;88.76;101621.19;2568351;30;138165;-38
2021/10/19 01:09:51;;;;;;;20.10;11.05;;;11.80;99.90;;;10.45;89.82;101616.00;2568095;30;137862;-39
2021/10/19 01:12:20;;;;;;;18.90;11.00;;;11.90;99.90;;;10.36;91.01;101614.41;2569611;30;137050;-38
2021/10/19 01:14:47;;;;;;;23.58;11.68;;;11.80;99.90;;;10.26;92.36;101611.13;2568666;30;138418;-38
2021/10/19 01:17:15;;;;;;;21.30;11.68;;;11.70;99.90;;;10.22;92.98;101622.41;2568261;30;138312;-38
2021/10/19 01:19:47;;;;;;;18.90;11.85;;;11.70;99.90;;;10.16;92.88;101617.72;2567357;30;138298;-39
2021/10/19 01:22:14;;;;;;;22.20;11.52;;;11.70;99.90;;;10.18;93.88;101621.09;2568759;30;137447;-38
2021/10/19 01:24:44;;;;;;;21.10;11.90;;;11.60;99.90;;;10.15;93.88;101623.34;2569810;30;139462;-39
2021/10/19 01:27:12;;;;;;;18.17;10.65;;;11.60;99.90;;;10.12;94.11;101608.25;2567920;30;137332;-38
2021/10/19 01:29:40;;;;;;;19.70;12.30;;;11.60;99.90;;;10.08;94.27;101604.19;2568811;30;139274;-39
2021/10/19 01:32:07;;;;;;;19.95;11.35;;;11.60;99.90;;;10.08;94.75;101599.59;2567752;30;137732;-39
2021/10/19 01:34:36;;;;;;;19.50;11.32;;;11.60;99.90;;;10.06;94.73;101600.78;2567664;30;137337;-38
2021/10/19 01:37:05;;;;;;;18.02;11.60;;;11.50;99.90;;;10.04;95.19;101598.28;2570181;30;137381;-38
2021/10/19 01:39:32;;;;;;;20.45;12.20;;;11.50;99.90;;;10.04;95.79;101595.56;2565181;30;138292;-40
2021/10/19 01:42:00;;;;;;;21.40;12.48;;;11.50;99.90;;;10.04;95.82;101595.56;2569383;30;137548;-38
2021/10/19 01:44:27;;;;;;;21.00;11.80;;;11.50;99.90;;;10.05;96.04;101593.66;2567665;30;138239;-38
2021/10/19 01:46:55;;;;;;;20.45;11.75;;;11.50;99.90;;;10.04;96.22;101586.50;2568458;30;137178;-38
2021/10/19 01:49:22;;;;;;;20.98;12.00;;;11.50;99.90;;;10.05;96.69;101585.47;2568846;30;138816;-39
2021/10/19 01:51:50;;;;;;;18.98;11.48;;;11.50;99.90;;;10.03;96.44;101584.81;2568461;30;137109;-38
2021/10/19 01:54:17;;;;;;;20.08;11.40;;;11.50;99.90;;;10.06;96.29;101581.72;2567602;30;138326;-38
2021/10/19 01:56:45;;;;;;;23.10;12.90;;;11.50;99.90;;;10.00;96.44;101586.06;2568290;30;137367;-38
2021/10/19 01:59:12;;;;;;;20.77;11.85;;;11.50;99.90;;;10.03;96.96;101590.28;2570320;30;139040;-38
2021/10/19 02:01:39;;;;;;;20.73;11.73;;;11.50;99.90;;;10.07;96.65;101586.97;2567258;30;137796;-38
2021/10/19 02:04:07;;;;;;;18.52;11.38;;;11.50;99.90;;;10.04;97.21;101589.22;2568844;30;137329;-38
2021/10/19 02:06:35;;;;;;;21.63;12.50;;;11.50;99.90;;;10.02;97.18;101584.00;2567207;30;137474;-38
2021/10/19 02:09:02;;;;;;;20.70;11.45;;;11.50;99.90;;;10.03;97.07;101584.81;2568640;30;138155;-39
2021/10/19 02:11:30;;;;;;;18.73;11.55;;;11.50;99.90;;;10.03;97.80;101585.69;2568438;30;137202;-38
2021/10/19 02:13:57;;;;;;;19.63;11.43;;;11.50;99.90;;;10.03;98.17;101595.72;2570353;30;139319;-38
2021/10/19 02:16:25;;;;;;;18.75;11.38;;;11.50;99.90;;;9.99;98.85;101592.56;2573690;30;137618;-40
2021/10/19 02:18:52;;;;;;;23.05;12.02;;;11.50;99.90;;;9.97;99.64;101580.13;2568795;30;139072;-40
2021/10/19 02:21:20;;;;;;;21.95;12.07;;;11.40;99.90;;;10.00;99.68;101585.19;2568258;30;137446;-40
2021/10/19 02:23:47;;;;;;;20.17;12.07;;;11.40;99.90;;;10.03;100.00;101585.69;2567266;30;137443;-40
2021/10/19 02:26:15;;;;;;;18.27;12.07;;;11.50;99.90;;;9.96;100.00;101584.75;2568277;30;137482;-40
2021/10/19 02:28:42;;;;;;;19.90;12.23;;;11.40;99.90;;;9.97;100.00;101580.13;2568482;30;138277;-40
2021/10/19 02:31:11;;;;;;;19.70;12.05;;;11.40;99.90;;;9.98;100.00;101570.91;2567783;30;137583;-40
2021/10/19 02:33:38;;;;;;;19.45;12.00;;;11.40;99.90;;;9.97;100.00;101553.75;2568177;30;137110;-40
2021/10/19 02:36:06;;;;;;;19.70;12.00;;;11.40;99.90;;;9.96;100.00;101556.63;2567830;30;138003;-40
2021/10/19 02:38:33;;;;;;;;;;;11.40;99.90;;;9.95;100.00;101553.09;2568242;30;137954;-40
2021/10/19 02:41:01;;;;;;;20.13;12.18;;;11.40;99.90;;;9.95;100.00;101547.63;2568227;30;138033;-40
2021/10/19 02:43:28;;;;;;;21.42;12.60;;;11.40;99.90;;;9.92;100.00;101547.97;2566450;30;139446;-40
2021/10/19 02:45:56;;;;;;;19.88;11.95;;;11.40;99.90;;;9.91;100.00;101538.13;2569074;30;137505;-40
2021/10/19 02:48:23;;;;;;;20.77;12.60;;;11.40;99.90;;;9.93;100.00;101536.03;2567315;30;137301;-40
2021/10/19 02:50:51;;;;;;;23.02;13.30;;;11.40;99.90;;;9.90;100.00;101537.28;2567526;30;136680;-40
2021/10/19 02:53:18;;;;;;;22.80;12.98;;;11.40;99.90;;;9.96;100.00;101540.28;2568022;30;137124;-40
2021/10/19 02:55:46;;;;;;;20.77;12.25;;;11.40;99.90;;;9.89;100.00;101532.88;2567459;30;137171;-40
2021/10/19 02:58:14;;;;;;;21.00;12.95;;;11.40;99.90;;;9.90;100.00;101533.72;2567856;30;138442;-40
2021/10/19 03:00:41;;;;;;;20.70;12.23;;;11.40;99.90;;;9.90;100.00;101528.25;2567606;30;136678;-40
2021/10/19 03:03:09;;;;;;;22.83;13.25;;;11.30;99.90;;;9.86;100.00;101533.25;2568237;30;138260;-40
2021/10/19 03:05:36;;;;;;;24.85;14.50;;;11.30;99.90;;;9.91;100.00;101532.66;2568183;30;137045;-40
2021/10/19 03:08:04;;;;;;;22.05;13.15;;;11.30;99.90;;;9.93;100.00;101525.16;2565868;30;138476;-40
2021/10/19 03:10:31;;;;;;;20.17;12.18;;;11.30;99.90;;;9.92;100.00;101521.59;2567409;30;137451;-40
2021/10/19 03:12:59;;;;;;;21.98;13.38;;;11.40;99.90;;;9.92;100.00;101516.13;2567182;30;138022;-40
2021/10/19 03:15:26;;;;;;;21.50;12.98;;;11.40;99.90;;;9.92;100.00;101516.13;2569565;30;137095;-40
2021/10/19 03:17:54;;;;;;;21.67;13.55;;;11.40;99.90;;;9.91;100.00;101516.31;2567513;30;138100;-40
2021/10/19 03:20:22;;;;;;;22.02;13.13;;;11.40;99.90;;;9.89;100.00;101513.78;2566931;30;137025;-40
2021/10/19 03:22:49;;;;;;;23.95;13.63;;;11.40;99.90;;;9.92;100.00;101513.41;2567718;30;138395;-40
2021/10/19 03:25:17;;;;;;;24.08;13.35;;;11.40;99.90;;;9.89;100.00;101508.34;2567768;30;137787;-40
2021/10/19 03:27:44;;;;;;;21.92;12.82;;;11.40;99.90;;;9.92;100.00;101516.13;2567623;30;138000;-40
2021/10/19 03:30:12;;;;;;;23.33;13.88;;;11.40;99.90;;;9.91;100.00;101510.88;2568974;30;137129;-40
2021/10/19 03:32:39;;;;;;;23.30;13.45;;;11.40;99.90;;;9.92;100.00;101505.22;2568156;30;138339;-40
2021/10/19 03:35:11;;;;;;;22.90;13.48;;;11.40;99.90;;;9.95;100.00;101508.59;2565809;30;138678;-40
2021/10/19 03:37:39;;;;;;;23.10;13.63;;;11.40;99.90;;;9.96;100.00;101513.03;2567799;30;138225;-40
2021/10/19 03:40:08;;;;;;;25.30;14.10;;;11.40;99.90;;;9.93;100.00;101509.66;2567880;30;137590;-40
2021/10/19 03:42:38;;;;;;;22.63;14.15;;;11.40;99.90;;;10.01;100.00;101505.09;2568444;30;138257;-40
2021/10/19 03:45:06;;;;;;;20.45;12.63;;;11.40;99.90;;;10.00;100.00;101507.00;2568672;30;137421;-40
2021/10/19 03:47:34;;;;;;;25.92;14.40;;;11.40;99.90;;;9.98;100.00;101506.34;2567351;30;137411;-40
2021/10/19 03:50:02;;;;;;;22.23;13.20;;;11.40;99.90;;;9.98;100.00;101506.34;2567660;30;137600;-40
2021/10/19 03:52:30;;;;;;;22.55;13.68;;;11.40;99.90;;;10.00;100.00;101508.88;2568058;30;137476;-40
2021/10/19 03:54:57;;;;;;;23.15;13.25;;;11.40;99.90;;;10.00;100.00;101495.25;2567729;30;136627;-40
2021/10/19 03:57:25;;;;;;;25.23;14.52;;;11.40;99.90;;;9.97;100.00;101498.34;2566819;30;138462;-40
2021/10/19 03:59:52;;;;;;;22.65;13.02;;;11.40;99.90;;;9.97;100.00;101501.09;2567991;30;138432;-40
2021/10/19 04:02:19;;;;;;;24.58;14.07;;;11.40;99.90;;;10.01;100.00;101497.78;2567505;30;138453;-40
2021/10/19 04:04:47;;;;;;;25.10;14.23;;;11.50;99.90;;;9.99;100.00;101501.72;2566273;30;137078;-40
2021/10/19 04:07:15;;;;;;;25.35;14.73;;;11.50;99.90;;;10.03;100.00;101503.91;2567936;30;138187;-40
2021/10/19 04:09:42;;;;;;;24.15;13.90;;;11.50;99.90;;;10.00;100.00;101495.25;2568369;30;136788;-40
2021/10/19 04:12:10;;;;;;;25.60;14.60;;;11.50;99.90;;;10.07;100.00;101494.28;2568368;30;137848;-40
2021/10/19 04:14:37;;;;;;;25.58;14.57;;;11.50;99.90;;;10.10;100.00;101490.34;2567821;30;136925;-40
2021/10/19 04:17:04;;;;;;;26.60;14.15;;;11.50;99.90;;;10.05;100.00;101490.91;2565528;30;137916;-40
2021/10/19 04:19:32;;;;;;;24.60;13.65;;;11.50;99.90;;;10.09;100.00;101480.47;2566968;30;137629;-40
2021/10/19 04:21:59;;;;;;;25.05;15.15;;;11.50;99.90;;;10.08;100.00;101481.50;2568772;30;137529;-39
2021/10/19 04:24:27;;;;;;;27.95;15.15;;;11.50;99.90;;;10.06;100.00;101467.19;2565396;30;137829;-40
2021/10/19 04:26:54;;;;;;;26.45;15.63;;;11.50;99.90;;;10.07;100.00;101467.03;2566952;30;138890;-40
2021/10/19 04:29:22;;;;;;;24.58;14.55;;;11.50;99.90;;;10.11;100.00;101464.75;2566749;30;137478;-40
2021/10/19 04:31:49;;;;;;;26.63;14.93;;;11.50;99.90;;;10.14;100.00;101461.66;2565189;30;139363;-40
2021/10/19 04:34:17;;;;;;;25.38;15.35;;;11.60;99.90;;;10.13;100.00;101467.28;2568165;30;137705;-41
2021/10/19 04:36:44;;;;;;;27.95;15.30;;;11.60;99.90;;;10.13;100.00;101456.38;2567596;30;138353;-40
2021/10/19 04:39:12;;;;;;;29.75;15.77;;;11.60;99.90;;;10.16;100.00;101454.13;2566309;30;137525;-40
2021/10/19 04:41:44;;;;;;;25.88;14.75;;;11.60;99.90;;;10.22;100.00;101456.06;2567845;30;138782;-40
2021/10/19 04:44:12;;;;;;;26.10;14.60;;;11.60;99.90;;;10.19;100.00;101453.72;2567678;30;137583;-41
2021/10/19 04:46:43;;;;;;;26.52;14.93;;;11.70;99.90;;;10.22;100.00;101461.50;2567358;30;139072;-40
2021/10/19 04:49:11;;;;;;;26.55;15.05;;;11.70;99.90;;;10.28;100.00;101457.16;2567870;30;137800;-40
2021/10/19 04:51:39;;;;;;;23.75;14.82;;;11.70;99.90;;;10.25;100.00;101456.69;2565893;30;138653;-40
2021/10/19 04:54:07;;;;;;;;;;;11.70;99.90;;;10.26;100.00;101456.53;2566556;30;138187;-40
2021/10/19 04:56:34;;;;;;;27.70;15.20;;;11.70;99.90;;;10.22;100.00;101452.50;2568440;30;138489;-40
2021/10/19 04:59:02;;;;;;;;;;;11.70;99.90;;;10.27;100.00;101454.63;2567864;30;136813;-40
2021/10/19 05:01:29;;;;;;;28.58;14.98;;;11.70;99.90;;;10.27;100.00;101443.72;2568234;30;139256;-40
2021/10/19 05:03:57;;;;;;;28.17;14.82;;;11.70;99.90;;;10.31;100.00;101437.69;2568980;30;137043;-40
2021/10/19 05:06:25;;;;;;;28.88;15.98;;;11.80;99.90;;;10.33;100.00;101442.94;2568441;30;138619;-40
2021/10/19 05:08:53;;;;;;;26.65;14.93;;;11.70;99.90;;;10.34;100.00;101444.63;2567878;30;138115;-41
2021/10/19 05:11:20;;;;;;;29.48;16.13;;;11.80;99.90;;;10.34;100.00;101437.28;2568075;30;137978;-40
2021/10/19 05:13:48;;;;;;;26.63;14.90;;;11.80;99.90;;;10.38;100.00;101443.22;2567945;30;137568;-40
2021/10/19 05:16:15;;;;;;;26.65;15.18;;;11.80;99.90;;;10.39;100.00;101438.56;2566754;30;138349;-40
2021/10/19 05:18:43;;;;;;;29.63;15.18;;;11.80;99.90;;;10.40;100.00;101438.44;2568071;30;137698;-40
2021/10/19 05:21:10;;;;;;;28.42;15.48;;;11.80;99.90;;;10.41;100.00;101437.38;2567395;30;138297;-40
2021/10/19 05:23:38;;;;;;;31.88;16.48;;;11.90;99.90;;;10.41;100.00;101433.81;2566947;30;138591;-40
2021/10/19 05:26:06;;;;;;;30.77;15.50;;;11.80;99.90;;;10.41;100.00;101437.38;2567970;30;138350;-40
2021/10/19 05:28:34;;;;;;;;;;;11.80;99.90;;;10.46;100.00;101439.50;2565769;30;137488;-40
2021/10/19 05:31:01;;;;;;;29.20;16.08;;;11.90;99.90;;;10.42;100.00;101435.47;2565298;30;139749;-40
2021/10/19 05:33:29;;;;;;;27.38;15.52;;;11.90;99.90;;;10.45;100.00;101444.13;2566852;30;137623;-40
2021/10/19 05:35:57;;;;;;;27.70;15.45;;;11.80;99.90;;;10.45;100.00;101451.47;2567048;30;138399;-40
2021/10/19 05:38:24;;;;;;;25.88;15.55;;;11.90;99.90;;;10.49;100.00;101450.88;2564498;30;137652;-40
2021/10/19 05:40:52;;;;;;;25.35;15.10;;;11.90;99.90;;;10.50;100.00;101459.91;2567255;30;136880;-40
2021/10/19 05:43:20;;;;;;;25.00;14.88;;;11.90;99.90;;;10.52;100.00;101457.84;2568153;30;137510;-40
2021/10/19 05:45:48;;;;;;;;;;;11.90;99.90;;;10.56;100.00;101450.09;2565596;30;137360;-40
2021/10/19 05:48:15;;;;;;;27.48;15.82;;;12.00;99.90;;;10.54;100.00;101447.56;2568820;30;137293;-40
2021/10/19 05:50:43;;;;;;;26.50;14.90;;;12.00;99.90;;;10.57;100.00;101438.13;2568788;30;137305;-40
2021/10/19 05:53:10;;;;;;;26.73;15.20;;;12.00;99.90;;;10.56;100.00;101441.91;2569327;30;136822;-40
2021/10/19 05:55:38;;;;;;;26.52;15.45;;;12.00;99.90;;;10.54;100.00;101444.84;2568581;30;138258;-40
2021/10/19 05:58:06;;;;;;;24.90;14.10;;;12.00;99.90;;;10.58;100.00;101439.81;2568572;30;137487;-40
2021/10/19 06:00:50;;;;;;;26.70;15.13;;;12.00;99.90;;;10.59;100.00;101444.22;2568130;30;138585;-40
2021/10/19 06:03:19;;;;;;;26.63;15.23;;;12.00;99.90;;;10.61;100.00;101436.72;2568536;30;138227;-40
2021/10/19 06:05:46;;;;;;;27.20;14.68;;;12.00;99.90;;;10.64;100.00;101431.69;2568305;30;137908;-40
2021/10/19 06:08:14;;;;;;;28.15;15.10;;;12.00;99.90;;;10.64;100.00;101428.13;2568265;30;137102;-40
2021/10/19 06:10:42;;;;;;;24.30;14.73;;;12.10;99.90;;;10.64;100.00;101434.41;2567982;30;138244;-40
2021/10/19 06:13:09;;;;;;;;;;;12.10;99.90;;;10.65;100.00;101435.28;2568740;30;136816;-40
2021/10/19 06:15:37;;;;;;;24.20;14.45;;;12.10;99.90;;;10.67;100.00;101432.31;2567565;30;137321;-40
2021/10/19 06:18:04;;;;;;;24.85;15.05;;;12.10;99.90;;;10.69;100.00;101428.38;2567878;30;138496;-40
2021/10/19 06:20:32;;;;;;;30.15;16.02;;;12.10;99.90;;;10.70;100.00;101432.78;2567170;30;138447;-40
2021/10/19 06:23:00;;;;;;;26.73;15.13;;;12.10;99.90;;;10.67;100.00;101427.72;2569036;30;137008;-40
2021/10/19 06:25:27;;;;;;;26.40;14.55;;;12.10;99.90;;;10.72;100.00;101433.44;2567433;30;139026;-40
2021/10/19 06:27:55;;;;;;;23.98;14.40;;;12.20;99.90;;;10.71;100.00;101423.56;2566137;30;138011;-40
2021/10/19 06:30:22;;;;;;;27.70;16.05;;;12.20;99.90;;;10.73;100.00;101426.94;2567700;30;138498;-40
2021/10/19 06:32:50;;;;;;;25.92;15.15;;;12.10;99.90;;;10.75;100.00;101427.56;2566719;30;137229;-40
2021/10/19 06:35:18;;;;;;;27.10;14.75;;;12.20;99.90;;;10.79;100.00;101433.50;2567257;30;137595;-40
2021/10/19 06:37:45;;;;;;;28.48;15.85;;;12.20;99.90;;;10.79;100.00;101417.09;2567978;30;137166;-40
2021/10/19 06:40:13;;;;;;;28.15;15.02;;;12.20;99.90;;;10.82;100.00;101410.38;2568238;30;138257;-40
2021/10/19 06:42:42;;;;;;;24.25;13.63;;;12.20;99.90;;;10.85;100.00;101408.13;2568340;30;136714;-40
2021/10/19 06:45:10;;;;;;;27.17;15.07;;;12.20;99.90;;;10.91;100.00;101411.94;2567919;30;138161;-40
2021/10/19 06:47:39;;;;;;;27.38;15.35;;;12.30;99.90;;;10.94;100.00;101417.81;2567504;30;137734;-40
2021/10/19 06:50:08;;;;;;;25.27;14.45;;;12.30;99.90;;;10.93;100.00;101415.31;2568508;30;137208;-40
2021/10/19 06:52:38;;;;;;;26.08;15.43;;;12.30;99.90;;;10.95;100.00;101418.69;2567870;30;137533;-41
2021/10/19 06:55:07;;;;;;;26.45;14.43;;;12.30;99.90;;;10.99;100.00;101419.97;2566750;30;137922;-40
2021/10/19 06:57:44;;;;;;;24.60;13.93;;;12.40;99.90;;;10.92;100.00;101411.72;2568100;30;137318;-40
2021/10/19 07:00:15;;;;;;;25.10;14.93;;;12.40;99.90;;;10.96;100.00;101423.09;2567207;30;139343;-40
2021/10/19 07:02:45;;;;;;;26.85;14.95;;;12.40;99.90;;;10.93;100.00;101413.41;2568795;30;138314;-40
2021/10/19 07:05:15;;;;;;;27.20;14.88;;;12.40;99.90;;;11.08;100.00;101426.94;2566653;30;138388;-40
2021/10/19 07:07:43;;;;;;;25.73;15.43;;;12.40;99.90;;;11.08;100.00;101423.38;2567283;30;136786;-40
2021/10/19 07:10:12;;;;;;;26.58;15.30;;;12.50;99.90;;;11.11;100.00;101417.50;2566796;30;138868;-40
2021/10/19 07:12:40;;;;;;;25.52;14.80;;;12.50;99.90;;;11.13;100.00;101426.34;2568225;30;137624;-40
2021/10/19 07:15:09;;;;;;;26.25;14.52;;;12.50;99.90;;;11.16;100.00;101419.66;2568263;30;138527;-40
2021/10/19 07:17:38;;;;;;;24.92;14.00;;;12.50;99.90;;;11.16;100.00;101419.66;2567890;30;138466;-40
2021/10/19 07:20:09;;;;;;;24.77;14.43;;;12.60;99.90;;;11.13;100.00;101420.03;2566214;30;138658;-40
2021/10/19 07:22:38;;;;;;;24.17;13.85;;;12.50;99.90;;;11.21;100.00;101433.53;2569026;30;136824;-40
2021/10/19 07:25:09;;;;;;;24.15;13.95;;;12.60;99.90;;;11.21;100.00;101439.00;2567149;30;137915;-40
2021/10/19 07:27:43;;;;;;;23.67;13.13;;;12.60;99.90;;;11.22;100.00;101438.78;2567917;30;138345;-40
2021/10/19 07:30:15;;;;;;;25.77;14.48;;;12.60;99.90;;;11.23;100.00;101431.44;2566408;30;137093;-40
2021/10/19 07:32:44;;;;;;;23.30;13.57;;;12.60;99.90;;;11.27;100.00;101424.53;2568480;30;137620;-40
2021/10/19 07:35:16;;;;;;;22.35;12.65;;;12.60;99.90;;;11.25;100.00;101440.28;2569153;30;136716;-40
2021/10/19 07:37:44;;;;;;;20.88;12.35;;;12.70;99.90;;;11.25;100.00;101433.94;2568375;30;137058;-40
2021/10/19 07:40:14;;;;;;;23.05;13.02;;;12.60;99.90;;;11.24;100.00;101438.59;2568084;30;137866;-40
2021/10/19 07:42:43;;;;;;;24.92;13.57;;;12.60;99.90;;;11.25;100.00;101440.28;2567930;30;138350;-40
2021/10/19 07:45:12;;;;;;;22.35;13.23;;;12.60;99.90;;;11.28;100.00;101439.03;2568257;30;139305;-40
2021/10/19 07:47:46;;;;;;;24.52;13.60;;;12.60;99.90;;;11.30;100.00;101443.22;2567598;30;139258;-40
2021/10/19 07:50:19;;;;;;;24.05;12.50;;;12.70;99.90;;;11.33;100.00;101448.28;2568076;30;138266;-40
2021/10/19 07:52:48;;;;;;;20.65;12.32;;;12.70;99.90;;;11.31;100.00;101447.66;2568327;30;137723;-40
2021/10/19 07:55:16;;;;;;;23.02;12.70;;;12.70;99.90;;;11.34;100.00;101454.63;2567053;30;138421;-40
2021/10/19 07:57:51;;;;;;;19.67;12.02;;;12.70;99.90;;;11.32;100.00;101452.06;2569016;30;137590;-40
2021/10/19 08:00:28;;;;;;;21.30;12.50;;;12.70;99.90;;;11.36;100.00;101442.41;2567647;30;139251;-40
2021/10/19 08:02:57;;;;;;;24.23;12.35;;;12.70;99.90;;;11.37;100.00;101441.38;2567727;30;138388;-40
2021/10/19 08:05:27;;;;;;;22.20;12.25;;;12.70;99.90;;;11.39;100.00;101440.31;2568104;30;138147;-40
2021/10/19 08:08:10;;;;;;;22.40;12.20;;;12.80;99.90;;;11.43;100.00;101436.16;2567244;30;137631;-40
2021/10/19 08:10:42;;;;;;;18.98;11.80;;;12.80;99.90;;;11.44;100.00;101435.13;2568445;30;138468;-40
2021/10/19 08:13:10;;;;;;;20.38;11.27;;;12.80;99.90;;;11.41;100.00;101436.34;2566899;30;137845;-40
2021/10/19 08:15:38;;;;;;;;;;;12.80;99.90;;;11.48;100.00;101436.41;2575110;30;138385;-37
2021/10/19 08:18:07;;;;;;;19.85;10.93;;;12.90;99.90;;;11.52;100.00;101448.59;2569784;30;136940;-38
2021/10/19 08:20:35;;;;;;;18.48;11.13;;;12.90;99.90;;;11.56;100.00;101446.31;2568282;30;137476;-38
2021/10/19 08:23:05;;;;;;;21.75;11.35;;;13.00;99.90;;;11.58;100.00;101455.97;2568755;30;136952;-43
2021/10/19 08:25:33;;;;;;;20.17;11.13;;;12.90;99.90;;;11.56;100.00;101452.59;2568883;30;140153;-38
2021/10/19 08:28:01;;;;;;;22.73;11.35;;;12.90;99.90;;;11.62;100.00;101450.97;2568093;30;137789;-39
2021/10/19 08:30:28;;;;;;;17.77;11.00;;;13.00;99.90;;;11.62;100.00;101440.84;2570296;30;138185;-38
2021/10/19 08:32:56;;;;;;;18.75;11.07;;;13.00;99.90;;;11.60;100.00;101442.13;2566536;30;137428;-38
2021/10/19 08:35:24;;;;;;;18.58;10.07;;;13.00;99.90;;;11.64;100.00;101441.47;2568524;30;139656;-38
2021/10/19 08:37:53;;;;;;;18.45;10.43;;;13.00;99.90;;;11.71;100.00;101438.78;2569099;30;136700;-38
2021/10/19 08:40:21;;;;;;;19.13;10.70;;;13.10;99.90;;;11.76;100.00;101440.91;2568450;30;137889;-38
2021/10/19 08:42:52;;;;;;;17.27;10.57;;;13.10;99.90;;;11.81;100.00;101438.41;2567443;30;137185;-38
2021/10/19 08:45:21;;;;;;;19.90;11.48;;;13.10;99.90;;;11.83;100.00;101438.19;2564774;30;138832;-38
2021/10/19 08:47:50;;;;;;;17.95;10.77;;;13.20;99.90;;;11.82;100.00;101442.00;2569697;30;137238;-38
2021/10/19 08:50:22;;;;;;;16.90;10.60;;;13.20;99.90;;;11.86;100.00;101435.88;2568923;30;137496;-38
2021/10/19 08:52:50;;;;;;;16.77;9.80;;;13.20;99.90;;;11.89;100.00;101432.72;2567267;30;138347;-38
2021/10/19 08:55:21;;;;;;;19.33;11.60;;;13.20;99.90;;;11.91;100.00;101441.56;2567908;30;138518;-38
2021/10/19 08:57:49;;;;;;;20.08;12.60;;;13.30;99.90;;;11.90;100.00;101439.88;2567335;30;137953;-39
2021/10/19 09:00:17;;;;;;;17.33;10.88;;;13.30;99.90;;;11.94;100.00;101437.59;2566899;30;139400;-38
2021/10/19 09:02:48;;;;;;;16.77;10.07;;;13.30;99.90;;;11.97;100.00;101431.69;2570568;30;136914;-38
2021/10/19 09:05:23;;;;;;;15.50;9.65;;;13.30;99.90;;;12.01;100.00;101423.97;2568734;30;137452;-38
2021/10/19 09:08:00;;;;;;;17.40;10.05;;;13.30;99.90;;;12.06;100.00;101430.47;2569207;30;137362;-38
2021/10/19 09:10:36;;;;;;;16.40;9.70;;;13.40;99.90;;;12.08;100.00;101433.88;2570552;30;138191;-38
2021/10/19 09:13:14;;;;;;;14.65;9.32;;;13.40;99.90;;;12.06;100.00;101429.66;2568396;30;137919;-38
2021/10/19 09:15:45;;;;;;;15.45;9.73;;;13.40;99.90;;;12.08;100.00;101431.16;2569343;30;137701;-39
2021/10/19 09:18:18;;;;;;;15.77;9.43;;;13.40;99.90;;;12.16;100.00;101432.00;2567923;30;137058;-38
2021/10/19 09:20:54;;;;;;;16.25;9.65;;;13.50;99.90;;;12.18;100.00;101427.16;2568864;30;138231;-38
2021/10/19 09:23:28;;;;;;;13.60;8.50;;;13.50;99.90;;;12.19;100.00;101428.84;2570933;30;136978;-38
2021/10/19 09:25:57;;;;;;;13.07;9.32;;;13.50;99.90;;;12.29;100.00;101433.91;2569735;30;139108;-39
2021/10/19 09:28:39;;;;;;;13.48;8.95;;;13.60;99.90;;;12.33;100.00;101435.16;2569846;30;137162;-38
2021/10/19 09:31:08;;;;;;;13.05;9.13;;;13.60;99.90;;;12.41;100.00;101426.72;2570644;30;138291;-38
2021/10/19 09:33:36;;;;;;;13.82;9.20;;;13.70;99.90;;;12.47;100.00;101425.06;2565921;30;137672;-39
2021/10/19 09:36:04;;;;;;;14.93;9.95;;;13.80;99.90;;;12.57;100.00;101417.25;2569786;30;139390;-38
2021/10/19 09:38:32;;;;;;;;;;;13.80;99.90;;;12.60;100.00;101425.06;2568806;30;136932;-38
2021/10/19 09:41:02;;;;;;;14.80;8.50;;;13.90;99.90;;;12.61;100.00;101425.91;2570386;30;136798;-38
2021/10/19 09:43:32;;;;;;;12.85;8.07;;;13.90;99.90;;;12.65;100.00;101427.16;2570253;30;138382;-38
2021/10/19 09:46:04;;;;;;;13.85;8.95;;;14.00;99.90;;;12.72;100.00;101427.16;2569236;30;139045;-38
2021/10/19 09:48:34;;;;;;;12.98;8.82;;;14.00;99.90;;;12.71;100.00;101433.69;2570108;30;136837;-38
2021/10/19 09:51:03;;;;;;;12.82;8.38;;;14.00;99.90;;;12.74;100.00;101436.84;2569527;30;138352;-38
2021/10/19 09:53:35;;;;;;;14.02;8.52;;;14.00;99.90;;;12.76;100.00;101425.66;2569871;30;136884;-38
2021/10/19 09:56:03;;;;;;;15.10;8.30;;;14.10;99.90;;;12.78;100.00;101431.78;2570109;30;138286;-38
2021/10/19 09:58:31;;;;;;;12.57;8.60;;;14.10;99.90;;;12.80;100.00;101432.41;2569678;30;136973;-38